createdAt,value
2022-11-02T00:00:55.066Z,16.83
2022-11-02T00:03:33.267Z,17.55
2022-11-02T00:06:00.924Z,16.13
2022-11-02T00:08:28.528Z,13.10
2022-11-02T00:10:55.862Z,11.95
2022-11-02T00:13:23.450Z,12.98
2022-11-02T00:15:50.788Z,14.60
2022-11-02T00:18:18.889Z,12.55
2022-11-02T00:20:47.734Z,15.52
2022-11-02T00:23:16.139Z,14.25
2022-11-02T00:25:47.833Z,13.20
2022-11-02T00:28:16.168Z,14.57
2022-11-02T00:30:44.156Z,16.65
2022-11-02T00:33:11.881Z,16.55
2022-11-02T00:35:40.077Z,18.13
2022-11-02T00:38:09.143Z,15.20
2022-11-02T00:40:36.435Z,15.35
2022-11-02T00:43:04.401Z,15.48
2022-11-02T00:45:31.815Z,14.35
2022-11-02T00:47:59.313Z,17.90
2022-11-02T00:50:26.682Z,14.32
2022-11-02T00:52:54.439Z,13.68
2022-11-02T00:55:23.230Z,13.68
2022-11-02T00:57:50.746Z,18.17
2022-11-02T01:00:18.222Z,15.73
2022-11-02T01:02:46.153Z,16.08
2022-11-02T01:05:13.377Z,14.63
2022-11-02T01:07:41.798Z,13.32
2022-11-02T01:10:11.090Z,15.35
2022-11-02T01:12:40.957Z,15.18
2022-11-02T01:15:09.304Z,15.48
2022-11-02T01:17:37.517Z,18.67
2022-11-02T01:20:06.172Z,15.10
2022-11-02T01:22:33.777Z,17.98
2022-11-02T01:25:01.201Z,16.15
2022-11-02T01:27:28.922Z,14.50
2022-11-02T01:29:57.831Z,18.08
2022-11-02T01:32:25.631Z,14.80
2022-11-02T01:34:52.824Z,17.92
2022-11-02T01:37:20.829Z,14.32
2022-11-02T01:39:48.414Z,16.73
2022-11-02T01:42:20.850Z,14.43
2022-11-02T01:44:48.358Z,14.77
2022-11-02T01:47:22.674Z,13.98
2022-11-02T01:49:55.631Z,15.45
2022-11-02T01:52:28.350Z,14.02
2022-11-02T01:54:59.409Z,13.05
2022-11-02T01:57:29.600Z,17.15
2022-11-02T02:00:02.360Z,16.38
2022-11-02T02:02:35.288Z,14.55
2022-11-02T02:05:05.998Z,14.75
2022-11-02T02:07:36.974Z,14.07
2022-11-02T02:10:05.120Z,14.70
2022-11-02T02:12:33.639Z,16.10
2022-11-02T02:15:01.085Z,16.08
2022-11-02T02:17:41.317Z,15.40
2022-11-02T02:20:18.019Z,14.77
2022-11-02T02:23:11.566Z,18.40
2022-11-02T02:26:00.842Z,19.40
2022-11-02T02:28:37.925Z,19.15
2022-11-02T02:31:17.880Z,18.65
2022-11-02T02:33:52.303Z,15.77
2022-11-02T02:36:25.169Z,16.67
2022-11-02T02:39:01.653Z,16.70
2022-11-02T02:41:37.402Z,19.80
2022-11-02T02:44:10.109Z,18.52
2022-11-02T02:49:14.056Z,16.75
2022-11-02T02:51:44.007Z,18.75
2022-11-02T02:54:29.393Z,19.52
2022-11-02T02:57:04.069Z,19.88
2022-11-02T03:02:06.917Z,14.88
2022-11-02T03:04:34.875Z,16.42
2022-11-02T03:07:03.119Z,16.80
2022-11-02T03:09:36.743Z,17.98
2022-11-02T03:12:15.694Z,15.80
2022-11-02T03:14:58.909Z,16.20
2022-11-02T03:17:32.525Z,14.50
2022-11-02T03:20:06.802Z,22.00
2022-11-02T03:22:41.910Z,16.42
2022-11-02T03:25:17.059Z,18.45
2022-11-02T03:27:50.987Z,17.80
2022-11-02T03:30:22.952Z,19.00
2022-11-02T03:32:57.309Z,18.08
2022-11-02T03:35:34.387Z,18.42
2022-11-02T03:38:06.672Z,18.10
2022-11-02T03:40:42.439Z,15.18
2022-11-02T03:43:11.393Z,15.18
2022-11-02T03:45:44.032Z,15.05
2022-11-02T03:48:15.029Z,16.40
2022-11-02T03:50:47.007Z,16.80
2022-11-02T03:53:22.158Z,13.90
2022-11-02T03:55:55.715Z,14.25
2022-11-02T03:58:23.048Z,13.50
2022-11-02T04:00:58.590Z,14.23
2022-11-02T04:03:25.855Z,15.77
2022-11-02T04:05:53.608Z,14.20
2022-11-02T04:08:27.449Z,14.90
2022-11-02T04:10:55.562Z,15.18
2022-11-02T04:13:22.890Z,13.20
2022-11-02T04:15:53.188Z,15.00
2022-11-02T04:18:21.139Z,13.30
2022-11-02T04:20:49.975Z,14.88
2022-11-02T04:23:17.799Z,13.95
2022-11-02T04:25:53.674Z,11.43
2022-11-02T04:28:21.251Z,12.82
2022-11-02T04:30:48.593Z,16.02
2022-11-02T04:33:18.295Z,13.65
2022-11-02T04:35:45.797Z,14.98
2022-11-02T04:38:13.518Z,14.57
2022-11-02T04:40:40.759Z,13.30
2022-11-02T04:43:08.271Z,14.38
2022-11-02T04:45:36.409Z,16.27
2022-11-02T04:48:05.817Z,14.68
2022-11-02T04:50:35.670Z,12.30
2022-11-02T04:53:05.478Z,15.98
2022-11-02T04:55:33.692Z,15.35
2022-11-02T04:58:01.135Z,9.68
2022-11-02T05:00:29.067Z,8.90
2022-11-02T05:02:56.579Z,8.13
2022-11-02T05:05:24.874Z,11.65
2022-11-02T05:07:53.699Z,10.50
2022-11-02T05:10:21.303Z,7.30
2022-11-02T05:12:48.601Z,8.88
2022-11-02T05:15:16.775Z,11.93
2022-11-02T05:17:47.855Z,13.52
2022-11-02T05:20:16.235Z,12.73
2022-11-02T05:22:43.769Z,9.55
2022-11-02T05:25:13.190Z,8.38
2022-11-02T05:27:40.496Z,10.35
2022-11-02T05:30:09.446Z,8.77
2022-11-02T05:32:36.905Z,10.55
2022-11-02T05:35:05.452Z,9.65
2022-11-02T05:37:32.778Z,16.50
2022-11-02T05:40:00.738Z,14.90
2022-11-02T05:42:29.673Z,11.27
2022-11-02T05:44:57.691Z,17.45
2022-11-02T05:47:25.039Z,14.18
2022-11-02T05:49:52.944Z,13.80
2022-11-02T05:52:20.614Z,14.27
2022-11-02T05:54:48.262Z,16.92
2022-11-02T05:57:15.618Z,14.68
2022-11-02T05:59:49.209Z,17.20
2022-11-02T06:02:16.916Z,18.95
2022-11-02T06:04:44.890Z,17.67
2022-11-02T06:07:12.125Z,17.48
2022-11-02T06:09:39.798Z,15.88
2022-11-02T06:12:07.870Z,19.38
2022-11-02T06:14:36.011Z,19.42
2022-11-02T06:17:04.744Z,16.23
2022-11-02T06:19:32.962Z,17.40
2022-11-02T06:22:00.338Z,14.70
2022-11-02T06:24:27.952Z,16.10
2022-11-02T06:26:55.441Z,17.10
2022-11-02T06:29:23.307Z,16.60
2022-11-02T06:31:50.614Z,18.88
2022-11-02T06:34:19.971Z,15.40
2022-11-02T06:36:47.427Z,16.27
2022-11-02T06:39:14.987Z,17.65
2022-11-02T06:41:42.461Z,15.52
2022-11-02T06:44:10.775Z,14.35
2022-11-02T06:46:38.357Z,15.45
2022-11-02T06:49:06.010Z,18.13
2022-11-02T06:51:34.656Z,14.05
2022-11-02T06:54:08.341Z,16.85
2022-11-02T06:56:36.183Z,16.17
2022-11-02T06:59:03.966Z,16.92
2022-11-02T07:01:31.535Z,18.73
2022-11-02T07:03:59.402Z,19.02
2022-11-02T07:06:26.965Z,20.38
2022-11-02T07:08:56.293Z,17.52
2022-11-02T07:11:23.610Z,15.70
2022-11-02T07:13:51.321Z,15.77
2022-11-02T07:16:18.749Z,15.50
2022-11-02T07:18:46.799Z,16.33
2022-11-02T07:21:14.170Z,17.35
2022-11-02T07:23:42.076Z,18.63
2022-11-02T07:26:10.986Z,15.95
2022-11-02T07:28:38.737Z,17.58
2022-11-02T07:31:06.308Z,15.85
2022-11-02T07:33:34.207Z,16.13
2022-11-02T07:36:03.356Z,19.42
2022-11-02T07:38:31.198Z,16.73
2022-11-02T07:40:58.630Z,17.23
2022-11-02T07:43:28.548Z,16.05
2022-11-02T07:45:55.994Z,17.95
2022-11-02T07:48:23.692Z,18.80
2022-11-02T07:50:51.051Z,16.90
2022-11-02T07:53:19.083Z,18.20
2022-11-02T07:55:49.323Z,21.05
2022-11-02T07:58:16.995Z,18.58
2022-11-02T08:00:46.065Z,17.70
2022-11-02T08:03:27.734Z,14.90
2022-11-02T08:06:01.606Z,14.82
2022-11-02T08:08:32.767Z,15.07
2022-11-02T08:11:05.279Z,17.40
2022-11-02T08:13:34.291Z,17.00
2022-11-02T08:16:03.480Z,17.63
2022-11-02T08:18:51.268Z,18.15
2022-11-02T08:21:18.453Z,16.52
2022-11-02T08:23:46.341Z,16.80
2022-11-02T08:26:16.992Z,15.93
2022-11-02T08:28:45.364Z,18.38
2022-11-02T08:31:15.971Z,18.00
2022-11-02T08:33:44.549Z,17.77
2022-11-02T08:36:12.119Z,12.60
2022-11-02T08:38:40.435Z,12.50
2022-11-02T08:41:08.414Z,12.13
2022-11-02T08:43:36.244Z,14.80
2022-11-02T08:46:18.905Z,14.20
2022-11-02T08:48:48.230Z,14.38
2022-11-02T08:51:15.616Z,11.70
2022-11-02T08:53:47.240Z,11.70
2022-11-02T08:56:17.869Z,12.30
2022-11-02T08:58:45.556Z,13.70
2022-11-02T09:01:13.324Z,14.90
2022-11-02T09:03:41.081Z,7.85
2022-11-02T09:06:12.048Z,11.32
2022-11-02T09:08:39.851Z,9.35
2022-11-02T09:11:07.342Z,12.65
2022-11-02T09:13:35.119Z,13.38
2022-11-02T09:16:02.494Z,9.68
2022-11-02T09:18:30.625Z,10.73
2022-11-02T09:21:01.839Z,9.05
2022-11-02T09:23:31.475Z,11.48
2022-11-02T09:25:59.395Z,10.40
2022-11-02T09:28:27.352Z,8.45
2022-11-02T09:30:54.913Z,11.02
2022-11-02T09:33:24.168Z,9.40
2022-11-02T09:35:52.060Z,10.18
2022-11-02T09:38:20.983Z,7.50
2022-11-02T09:41:02.036Z,6.55
2022-11-02T09:43:38.873Z,7.75
2022-11-02T09:46:09.738Z,7.43
2022-11-02T09:48:42.320Z,7.05
2022-11-02T09:51:16.909Z,7.95
2022-11-02T09:53:56.697Z,5.85
2022-11-02T09:56:27.362Z,5.30
2022-11-02T09:59:00.559Z,7.72
2022-11-02T10:01:56.754Z,4.80
2022-11-02T10:05:03.271Z,5.20
2022-11-02T10:08:07.633Z,8.00
2022-11-02T10:10:39.288Z,5.57
2022-11-02T10:13:23.491Z,7.47
2022-11-02T10:15:55.035Z,4.95
2022-11-02T10:18:25.564Z,8.82
2022-11-02T10:20:56.302Z,7.20
2022-11-02T10:23:28.945Z,8.18
2022-11-02T10:25:56.632Z,9.63
2022-11-02T10:28:29.754Z,7.55
2022-11-02T10:30:57.794Z,5.57
2022-11-02T10:33:28.748Z,7.40
2022-11-02T10:36:19.516Z,8.27
2022-11-02T10:41:43.736Z,6.40
2022-11-02T10:44:28.667Z,6.28
2022-11-02T10:47:09.216Z,6.03
2022-11-02T10:50:12.297Z,6.60
2022-11-02T10:52:43.773Z,7.00
2022-11-02T10:55:21.467Z,6.82
2022-11-02T10:57:50.729Z,5.22
2022-11-02T11:00:33.914Z,7.82
2022-11-02T11:03:06.803Z,5.00
2022-11-02T11:05:38.733Z,5.15
2022-11-02T11:08:10.191Z,5.95
2022-11-02T11:10:50.223Z,5.82
2022-11-02T11:16:18.453Z,5.65
2022-11-02T11:21:41.951Z,6.40
2022-11-02T11:24:21.735Z,5.68
2022-11-02T11:27:18.092Z,5.18
2022-11-02T11:29:57.616Z,6.15
2022-11-02T11:32:30.416Z,5.88
2022-11-02T11:35:02.524Z,5.72
2022-11-02T11:37:30.104Z,4.38
2022-11-02T11:40:01.341Z,9.07
2022-11-02T11:42:31.747Z,6.35
2022-11-02T11:45:03.952Z,7.40
2022-11-02T11:47:35.933Z,5.35
2022-11-02T11:50:11.915Z,6.55
2022-11-02T11:52:47.036Z,5.40
2022-11-02T11:55:24.562Z,4.90
2022-11-02T11:58:05.495Z,5.78
2022-11-02T12:00:33.812Z,5.32
2022-11-02T12:03:07.796Z,5.15
2022-11-02T12:05:47.380Z,5.53
2022-11-02T12:08:27.315Z,6.78
2022-11-02T12:11:05.881Z,3.97
2022-11-02T12:14:01.097Z,4.05
2022-11-02T12:16:44.089Z,7.40
2022-11-02T12:19:29.743Z,6.85
2022-11-02T12:22:10.295Z,5.32
2022-11-02T12:24:58.777Z,5.15
2022-11-02T12:27:36.950Z,5.82
2022-11-02T12:33:03.029Z,4.10
2022-11-02T12:35:58.072Z,5.10
2022-11-02T12:38:53.353Z,4.45
2022-11-02T12:41:35.372Z,5.32
2022-11-02T12:44:14.772Z,5.75
2022-11-02T12:46:49.121Z,6.78
2022-11-02T12:49:39.045Z,8.80
2022-11-02T12:52:17.697Z,5.38
2022-11-02T12:54:48.109Z,4.53
2022-11-02T12:57:20.205Z,4.40
2022-11-02T12:59:52.480Z,6.90
2022-11-02T13:02:26.305Z,7.18
2022-11-02T13:04:59.083Z,6.97
2022-11-02T13:07:32.545Z,8.27
2022-11-02T13:10:05.062Z,7.25
2022-11-02T13:15:10.918Z,8.23
2022-11-02T13:17:43.871Z,7.97
2022-11-02T13:20:18.440Z,6.80
2022-11-02T13:22:55.501Z,8.40
2022-11-02T13:25:28.122Z,8.73
2022-11-02T13:28:05.193Z,7.43
2022-11-02T13:30:34.821Z,8.93
2022-11-02T13:33:09.053Z,6.25
2022-11-02T13:35:39.011Z,6.68
2022-11-02T13:38:25.485Z,4.97
2022-11-02T13:41:04.698Z,9.63
2022-11-02T13:44:08.397Z,8.05
2022-11-02T13:47:01.288Z,5.95
2022-11-02T13:49:31.977Z,5.43
2022-11-02T13:52:03.767Z,7.13
2022-11-02T13:54:36.694Z,6.43
2022-11-02T13:57:04.570Z,5.93
2022-11-02T13:59:40.469Z,8.52
2022-11-02T14:02:16.384Z,4.38
2022-11-02T14:04:48.211Z,6.53
2022-11-02T14:07:28.789Z,7.20
2022-11-02T14:10:07.435Z,4.57
2022-11-02T14:12:45.173Z,6.38
2022-11-02T14:15:37.994Z,6.85
2022-11-02T14:18:12.678Z,8.13
2022-11-02T14:20:41.889Z,7.55
2022-11-02T14:23:37.042Z,7.13
2022-11-02T14:26:33.054Z,7.50
2022-11-02T14:29:25.632Z,6.57
2022-11-02T14:32:03.286Z,4.32
2022-11-02T14:34:51.617Z,6.75
2022-11-02T14:37:45.760Z,6.55
2022-11-02T14:40:28.013Z,3.88
2022-11-02T14:43:17.025Z,6.88
2022-11-02T14:45:56.424Z,6.85
2022-11-02T14:48:30.044Z,5.38
2022-11-02T14:51:03.421Z,5.10
2022-11-02T14:53:35.048Z,8.52
2022-11-02T14:56:03.563Z,5.97
2022-11-02T14:58:34.063Z,7.10
2022-11-02T15:03:42.826Z,6.22
2022-11-02T15:06:18.860Z,7.35
2022-11-02T15:08:52.799Z,4.78
2022-11-02T15:11:49.044Z,5.13
2022-11-02T15:15:00.641Z,5.07
2022-11-02T15:18:25.194Z,5.80
2022-11-02T15:21:28.180Z,8.07
2022-11-02T15:24:04.251Z,9.82
2022-11-02T15:26:42.932Z,6.95
2022-11-02T15:29:20.143Z,6.18
2022-11-02T15:31:54.881Z,7.57
2022-11-02T15:34:35.763Z,7.80
2022-11-02T15:37:05.754Z,10.93
2022-11-02T15:42:28.512Z,6.72
2022-11-02T15:45:42.600Z,7.20
2022-11-02T15:48:19.178Z,8.05
2022-11-02T15:50:55.706Z,7.10
2022-11-02T15:53:39.954Z,9.43
2022-11-02T15:56:22.568Z,5.88
2022-11-02T15:59:11.811Z,9.15
2022-11-02T16:01:40.429Z,8.30
2022-11-02T16:04:17.132Z,5.88
2022-11-02T16:06:46.165Z,7.15
2022-11-02T16:09:32.368Z,6.53
2022-11-02T16:12:10.178Z,7.25
2022-11-02T16:14:38.065Z,4.15
2022-11-02T16:17:06.365Z,10.65
2022-11-02T16:19:33.828Z,7.00
2022-11-02T16:22:08.941Z,8.23
2022-11-02T16:24:43.609Z,6.25
2022-11-02T16:27:13.371Z,6.75
2022-11-02T16:29:41.494Z,7.82
2022-11-02T16:32:10.456Z,9.13
2022-11-02T16:34:38.853Z,7.80
2022-11-02T16:37:10.241Z,7.13
2022-11-02T16:39:44.269Z,7.30
2022-11-02T16:42:18.157Z,7.53
2022-11-02T16:44:55.986Z,5.63
2022-11-02T16:47:37.493Z,5.40
2022-11-02T16:50:19.280Z,10.93
2022-11-02T16:52:57.433Z,8.18
2022-11-02T16:55:43.021Z,8.10
2022-11-02T16:58:18.980Z,10.52
2022-11-02T17:00:54.381Z,9.85
2022-11-02T17:03:26.407Z,8.90
2022-11-02T17:05:54.676Z,11.45
2022-11-02T17:08:32.449Z,11.23
2022-11-02T17:11:04.453Z,10.05
2022-11-02T17:13:35.566Z,10.18
2022-11-02T17:16:06.257Z,14.13
2022-11-02T17:18:33.865Z,11.93
2022-11-02T17:21:29.755Z,9.75
2022-11-02T17:23:58.975Z,14.70
2022-11-02T17:26:42.514Z,12.40
2022-11-02T17:29:30.328Z,12.38
2022-11-02T17:31:58.867Z,25.90
2022-11-02T17:34:32.408Z,17.13
2022-11-02T17:37:03.646Z,11.38
2022-11-02T17:39:33.625Z,12.55
2022-11-02T17:42:03.989Z,11.90
2022-11-02T17:44:31.496Z,11.80
2022-11-02T17:46:59.558Z,12.15
2022-11-02T17:49:27.768Z,15.77
2022-11-02T17:51:55.301Z,13.35
2022-11-02T17:54:23.013Z,14.45
2022-11-02T17:56:50.696Z,17.42
2022-11-02T17:59:20.277Z,15.00
2022-11-02T18:01:47.979Z,20.00
2022-11-02T18:04:16.509Z,18.65
2022-11-02T18:06:46.018Z,15.57
2022-11-02T18:09:18.005Z,18.27
2022-11-02T18:11:48.870Z,16.17
2022-11-02T18:14:17.115Z,14.48
2022-11-02T18:16:45.990Z,16.52
2022-11-02T18:19:13.938Z,16.00
2022-11-02T18:21:41.435Z,15.93
2022-11-02T18:24:09.370Z,15.20
2022-11-02T18:26:42.740Z,16.10
2022-11-02T18:29:14.565Z,11.25
2022-11-02T18:31:42.019Z,12.88
2022-11-02T18:34:11.857Z,10.60
2022-11-02T18:36:41.472Z,9.38
2022-11-02T18:39:09.277Z,10.88
2022-11-02T18:41:36.648Z,10.18
2022-11-02T18:44:09.041Z,10.07
2022-11-02T18:46:41.242Z,13.90
2022-11-02T18:49:12.233Z,12.35
2022-11-02T18:51:39.959Z,11.55
2022-11-02T18:54:08.353Z,9.32
2022-11-02T18:56:36.049Z,10.23
2022-11-02T18:59:03.924Z,10.55
2022-11-02T19:01:31.937Z,12.05
2022-11-02T19:04:00.846Z,10.88
2022-11-02T19:06:43.868Z,9.10
2022-11-02T19:09:14.157Z,12.65
2022-11-02T19:11:41.828Z,10.52
2022-11-02T19:14:13.158Z,8.82
2022-11-02T19:16:41.060Z,12.93
2022-11-02T19:19:09.172Z,9.10
2022-11-02T19:21:40.733Z,14.15
2022-11-02T19:24:09.129Z,7.82
2022-11-02T19:26:37.134Z,10.75
2022-11-02T19:29:06.516Z,10.40
2022-11-02T19:31:34.569Z,9.95
2022-11-02T19:34:02.358Z,9.80
2022-11-02T19:36:29.877Z,12.60
2022-11-02T19:38:59.207Z,13.38
2022-11-02T19:41:26.710Z,8.65
2022-11-02T19:43:54.632Z,9.05
2022-11-02T19:46:22.862Z,8.50
2022-11-02T19:48:51.216Z,13.15
2022-11-02T19:51:21.425Z,12.13
2022-11-02T19:53:50.736Z,9.45
2022-11-02T19:56:21.527Z,16.60
2022-11-02T19:58:52.595Z,15.73
2022-11-02T20:01:24.538Z,9.98
2022-11-02T20:03:53.574Z,10.25
2022-11-02T20:06:24.422Z,9.35
2022-11-02T20:08:53.601Z,9.57
2022-11-02T20:11:23.056Z,8.45
2022-11-02T20:13:51.324Z,11.15
2022-11-02T20:16:19.810Z,11.15
2022-11-02T20:18:48.968Z,7.57
2022-11-02T20:21:18.927Z,9.43
2022-11-02T20:23:47.539Z,8.13
2022-11-02T20:26:16.887Z,9.07
2022-11-02T20:28:46.906Z,11.55
2022-11-02T20:31:17.303Z,14.45
2022-11-02T20:33:45.638Z,9.98
2022-11-02T20:36:13.741Z,10.10
2022-11-02T20:38:42.453Z,8.43
2022-11-02T20:41:11.985Z,7.47
2022-11-02T20:43:42.511Z,10.48
2022-11-02T20:49:08.948Z,10.88
2022-11-02T20:51:48.870Z,9.85
2022-11-02T20:54:16.613Z,11.77
2022-11-02T20:56:44.060Z,10.32
2022-11-02T20:59:11.942Z,9.63
2022-11-02T21:01:40.914Z,8.52
2022-11-02T21:04:09.921Z,9.98
2022-11-02T21:06:38.375Z,8.48
2022-11-02T21:09:09.228Z,10.00
2022-11-02T21:11:39.646Z,9.85
2022-11-02T21:14:07.801Z,8.95
2022-11-02T21:16:35.087Z,12.05
2022-11-02T21:19:04.552Z,9.52
2022-11-02T21:21:31.998Z,9.23
2022-11-02T21:23:59.998Z,8.38
2022-11-02T21:29:12.570Z,8.10
2022-11-02T21:31:39.915Z,8.82
2022-11-02T21:34:09.227Z,8.30
2022-11-02T21:36:36.573Z,7.93
2022-11-02T21:39:04.726Z,6.40
2022-11-02T21:41:31.992Z,8.32
2022-11-02T21:43:59.883Z,9.93
2022-11-02T21:46:27.288Z,7.82
2022-11-02T21:48:55.687Z,8.38
2022-11-02T21:51:25.029Z,11.60
2022-11-02T21:53:53.029Z,9.20
2022-11-02T21:56:21.768Z,7.70
2022-11-02T21:58:49.570Z,8.90
2022-11-02T22:01:19.229Z,8.63
2022-11-02T22:03:47.059Z,8.90
2022-11-02T22:06:15.488Z,8.88
2022-11-02T22:08:44.348Z,7.45
2022-11-02T22:11:14.171Z,13.00
2022-11-02T22:13:42.682Z,14.27
2022-11-02T22:16:12.923Z,11.65
2022-11-02T22:18:40.668Z,9.88
2022-11-02T22:21:08.710Z,14.43
2022-11-02T22:23:36.076Z,11.85
2022-11-02T22:26:07.956Z,8.60
2022-11-02T22:28:37.091Z,9.23
2022-11-02T22:31:05.771Z,8.18
2022-11-02T22:33:33.412Z,7.85
2022-11-02T22:36:04.123Z,10.98
2022-11-02T22:38:31.389Z,8.45
2022-11-02T22:40:59.749Z,7.22
2022-11-02T22:43:28.538Z,8.48
2022-11-02T22:46:00.791Z,6.93
2022-11-02T22:48:28.217Z,9.65
2022-11-02T22:50:56.421Z,7.07
2022-11-02T22:53:24.279Z,11.50
2022-11-02T22:55:59.484Z,9.02
2022-11-02T22:58:30.203Z,8.55
2022-11-02T23:00:58.276Z,10.55
2022-11-02T23:03:25.972Z,8.48
2022-11-02T23:05:53.685Z,8.93
2022-11-02T23:08:20.966Z,9.73
2022-11-02T23:10:54.513Z,7.35
2022-11-02T23:13:23.101Z,9.13
2022-11-02T23:15:51.982Z,7.40
2022-11-02T23:18:19.912Z,10.48
2022-11-02T23:20:51.168Z,7.82
2022-11-02T23:23:18.847Z,7.15
2022-11-02T23:25:54.433Z,7.32
2022-11-02T23:28:22.362Z,6.55
2022-11-02T23:30:54.518Z,7.30
2022-11-02T23:33:23.691Z,7.75
2022-11-02T23:35:51.371Z,6.93
2022-11-02T23:38:18.767Z,8.30
2022-11-02T23:40:46.250Z,8.75
2022-11-02T23:43:14.324Z,7.70
2022-11-02T23:45:41.578Z,11.07
2022-11-02T23:48:11.123Z,6.05
2022-11-02T23:50:38.517Z,7.55
2022-11-02T23:53:07.000Z,5.18
2022-11-02T23:55:35.974Z,7.35
2022-11-02T23:58:03.248Z,8.82
